EW7262 Weather Reports


Display with metric or nautical units.
time (UTC)temp
F
wind
direction
speed
MPH
gust
MPH
rain 1hr
in
rain 24hr
in
rain mn
in
humidity
%
barometer
mb
20210805141527 68 162 2.0 5.0 0.00 0.00 0.00 52 1008.6
20210805140003 67 142 2.0 5.0 0.00 0.00 0.00 54 1008.6
20210805134654 65 154 1.0 5.0 0.00 0.00 0.00 58 1008.7
20210805133157 62 225 0.0 2.0 0.00 0.00 0.00 67 1008.7
20210805131634 61 226 0.0 0.0 0.00 0.00 0.00 69 1008.9
20210805130144 60 226 0.0 1.0 0.00 0.00 0.00 70 1008.7
20210805124656 59 226 1.0 2.0 0.00 0.00 0.00 67 1008.4
20210805123117 59 225 0.0 1.0 0.00 0.00 0.00 66 1008.3
20210805121559 59 225 0.0 2.0 0.00 0.00 0.00 66 1008.2
20210805120119 59 225 1.0 2.0 0.00 0.00 0.00 66 1008.1
20210805114647 59 226 0.0 2.0 0.00 0.00 0.00 65 1008.2
20210805113123 59 226 1.0 3.0 0.00 0.00 0.00 65 1008.2
20210805111536 59 226 1.0 3.0 0.00 0.00 0.00 64 1008.1
20210805110123 59 225 1.0 2.0 0.00 0.00 0.00 63 1007.9
20210805104658 59 225 0.0 0.0 0.00 0.00 0.00 61 1007.8
20210805103045 58 225 0.0 3.0 0.00 0.00 0.00 62 1007.9
20210805101538 58 226 1.0 3.0 0.00 0.00 0.00 64 1007.9
20210805100122 59 226 0.0 3.0 0.00 0.00 0.00 64 1007.9
20210805094541 58 226 2.0 3.0 0.00 0.00 0.00 67 1007.8
20210805093058 58 225 0.0 0.0 0.00 0.00 0.00 68 1007.9
20210805091536 58 226 0.0 0.0 0.00 0.00 0.00 68 1008.0
20210805090055 58 225 0.0 2.0 0.00 0.00 0.00 67 1008.2
20210805084600 58 226 1.0 3.0 0.00 0.00 0.00 67 1008.2
20210805083039 59 225 1.0 3.0 0.00 0.00 0.00 66 1008.3
20210805081522 60 225 1.0 5.0 0.00 0.00 0.00 65 1008.4
20210805080019 60 223 3.0 5.0 0.00 0.00 0.00 63 1008.6
20210805074535 60 188 2.0 5.0 0.00 0.00 0.00 62 1008.7
20210805073011 60 186 2.0 4.0 0.00 0.00 0.00 60 1008.8
20210805071508 61 186 3.0 5.0 0.00 0.00 0.00 56 1009.0
20210805070002 62 196 3.0 6.0 0.00 0.00 0.00 54 1009.1
20210805064502 62 175 2.0 4.0 0.00 0.00 0.00 54 1009.1
20210805063235 63 173 2.0 4.0 0.00 0.00 0.00 53 1009.2
20210805061754 63 173 2.0 5.0 0.00 0.00 0.00 51 1009.2
20210805060151 64 161 3.0 5.0 0.00 0.00 0.00 50 1009.2
20210805054659 65 155 2.0 7.0 0.00 0.00 0.00 49 1009.4
20210805053145 65 181 3.0 6.0 0.00 0.00 0.00 49 1009.4
20210805051641 66 110 1.0 7.0 0.00 0.00 0.00 47 1009.5
20210805050117 67 99 5.0 8.0 0.00 0.00 0.00 45 1009.6
20210805044632 67 100 4.0 8.0 0.00 0.00 0.00 44 1009.6
20210805043144 68 89 5.0 9.0 0.00 0.00 0.00 43 1009.7
20210805041612 68 71 2.0 5.0 0.00 0.00 0.00 41 1009.7
20210805040054 69 71 2.0 6.0 0.00 0.00 0.00 39 1009.5
20210805034707 72 39 0.0 0.0 0.00 0.00 0.00 33 1009.4
20210805033236 73 39 0.0 2.0 0.00 0.00 0.00 32 1009.3
20210805031629 74 39 0.0 2.0 0.00 0.00 0.00 31 1009.1
20210805030101 74 39 0.0 0.0 0.00 0.00 0.00 30 1009.1
20210805024657 75 39 0.0 0.0 0.00 0.00 0.00 30 1009.0
20210805023225 76 39 0.0 0.0 0.00 0.00 0.00 29 1008.8
20210805021624 78 39 0.0 0.0 0.00 0.00 0.00 28 1008.7
20210805020112 79 39 0.0 0.0 0.00 0.00 0.00 28 1008.7
20210805014611 80 39 0.0 0.0 0.00 0.00 0.00 29 1008.7
20210805013208 80 39 0.0 2.0 0.00 0.00 0.00 30 1008.5
20210805011602 80 39 0.0 2.0 0.00 0.00 0.00 28 1008.4
20210805010053 81 39 1.0 6.0 0.00 0.00 0.00 25 1008.6
20210805004613 82 17 4.0 9.0 0.00 0.00 0.00 24 1008.6
20210805003050 82 360 5.0 10.0 0.00 0.00 0.00 24 1008.6
20210805001548 82 24 6.0 9.0 0.00 0.00 0.00 24 1008.4
20210805000241 82 42 2.0 8.0 0.00 0.00 0.00 24 1008.4
20210804234700 82 14 8.0 13.0 0.00 0.00 0.00 24 1008.4
20210804233058 84 28 3.0 11.0 0.00 0.00 0.00 23 1008.5
20210804231730 85 27 9.0 14.0 0.00 0.00 0.00 22 1008.5
20210804230059 85 27 4.0 12.0 0.00 0.00 0.00 23 1008.5
20210804224613 85 350 11.0 17.0 0.00 0.00 0.00 22 1008.7
20210804223120 85 355 9.0 14.0 0.00 0.00 0.00 22 1008.8
20210804221602 84 349 6.0 18.0 0.00 0.00 0.00 22 1008.9
20210804220052 85 360 11.0 16.0 0.00 0.00 0.00 22 1009.1
20210804214535 85 28 10.0 15.0 0.00 0.00 0.00 23 1009.0
20210804213056 84 17 5.0 14.0 0.00 0.00 0.00 25 1008.9
20210804211530 86 360 11.0 21.0 0.00 0.00 0.00 24 1009.0
20210804210044 85 19 7.0 18.0 0.00 0.00 0.00 25 1009.0
20210804204543 85 360 9.0 16.0 0.00 0.00 0.00 25 1009.1
20210804203051 85 346 11.0 20.0 0.00 0.00 0.00 25 1009.1
20210804201610 84 333 10.0 19.0 0.00 0.00 0.00 26 1009.2
20210804200027 84 360 10.0 21.0 0.00 0.00 0.00 26 1009.2
20210804194523 83 360 8.0 19.0 0.00 0.00 0.00 30 1009.3
20210804193024 82 18 5.0 16.0 0.00 0.00 0.00 31 1009.3
20210804191523 83 42 8.0 16.0 0.00 0.00 0.00 31 1009.4
20210804190013 82 22 11.0 17.0 0.00 0.00 0.00 31 1009.5
20210804184557 81 17 12.0 19.0 0.00 0.00 0.00 30 1009.6
20210804183006 81 20 9.0 17.0 0.00 0.00 0.00 34 1009.8
20210804181506 80 360 11.0 18.0 0.00 0.00 0.00 38 1009.8
20210804180217 79 355 10.0 16.0 0.00 0.00 0.00 39 1009.9
20210804174644 78 19 10.0 15.0 0.00 0.00 0.00 43 1009.9
20210804173128 78 328 8.0 15.0 0.00 0.00 0.00 45 1009.9
20210804171703 77 360 10.0 14.0 0.00 0.00 0.00 48 1009.8
20210804170136 77 5 9.0 18.0 0.00 0.00 0.00 50 1010.0
20210804164601 76 360 8.0 16.0 0.00 0.00 0.00 54 1010.0
20210804163051 75 23 9.0 14.0 0.00 0.00 0.00 54 1010.0
20210804161542 75 345 10.0 16.0 0.00 0.00 0.00 55 1010.0
20210804160135 73 40 8.0 14.0 0.00 0.00 0.00 59 1010.0
20210804154703 73 360 8.0 14.0 0.00 0.00 0.00 58 1010.1
20210804153056 72 360 7.0 12.0 0.00 0.00 0.00 60 1010.0
20210804151521 71 338 8.0 13.0 0.00 0.00 0.00 63 1010.1
20210804150024 69 340 8.0 13.0 0.00 0.00 0.00 64 1010.2
20210804144528 68 360 8.0 11.0 0.00 0.00 0.00 66 1010.1
20210804143012 67 360 7.0 11.0 0.00 0.00 0.00 69 1010.1